createdAt,value
2017-10-22T00:00:24.128Z,1007.25
2017-10-22T00:01:04.719Z,1007.37
2017-10-22T00:01:45.299Z,1007.35
2017-10-22T00:02:25.863Z,1007.35
2017-10-22T00:03:06.443Z,1007.34
2017-10-22T00:03:47.027Z,1007.33
2017-10-22T00:04:27.617Z,1007.32
2017-10-22T00:05:08.230Z,1007.27
2017-10-22T00:05:48.823Z,1007.28
2017-10-22T00:06:29.399Z,1007.27
2017-10-22T00:07:09.977Z,1007.23
2017-10-22T00:07:50.581Z,1007.28
2017-10-22T00:08:31.179Z,1007.24
2017-10-22T00:09:11.771Z,1007.26
2017-10-22T00:09:52.394Z,1007.28
2017-10-22T00:10:32.984Z,1007.27
2017-10-22T00:11:13.579Z,1007.28
2017-10-22T00:11:54.182Z,1007.34
2017-10-22T00:12:34.774Z,1007.35
2017-10-22T00:13:15.345Z,1007.4
2017-10-22T00:13:55.939Z,1007.37
2017-10-22T00:14:36.513Z,1007.4
2017-10-22T00:15:17.106Z,1007.39
2017-10-22T00:15:57.713Z,1007.36
2017-10-22T00:16:38.302Z,1007.34
2017-10-22T00:17:18.883Z,1007.3
2017-10-22T00:17:59.454Z,1007.35
2017-10-22T00:18:40.015Z,1007.35
2017-10-22T00:19:20.600Z,1007.37
2017-10-22T00:20:01.178Z,1007.34
2017-10-22T00:20:41.812Z,1007.38
2017-10-22T00:21:22.420Z,1007.35
2017-10-22T00:22:03.016Z,1007.33
2017-10-22T00:22:43.648Z,1007.32
2017-10-22T00:23:24.192Z,1007.34
2017-10-22T00:24:04.768Z,1007.33
2017-10-22T00:24:45.370Z,1007.3
2017-10-22T00:25:25.979Z,1007.29
2017-10-22T00:26:06.568Z,1007.24
2017-10-22T00:26:47.151Z,1007.2
2017-10-22T00:27:27.730Z,1007.22
2017-10-22T00:28:08.332Z,1007.23
2017-10-22T00:28:48.908Z,1007.2
2017-10-22T00:29:29.500Z,1007.2
2017-10-22T00:30:10.098Z,1007.16
2017-10-22T00:30:50.676Z,1007.15
2017-10-22T00:31:31.295Z,1007.12
2017-10-22T00:32:11.878Z,1007.15
2017-10-22T00:32:52.452Z,1007.13
2017-10-22T00:33:33.028Z,1007.11
2017-10-22T00:34:13.600Z,1007.1
2017-10-22T00:34:54.163Z,1007.12
2017-10-22T00:35:34.736Z,1007.09
2017-10-22T00:36:15.323Z,1007.1
2017-10-22T00:36:55.901Z,1007.08
2017-10-22T00:37:36.471Z,1007.06
2017-10-22T00:38:23.617Z,1007.05
2017-10-22T00:39:04.210Z,1007.05
2017-10-22T00:39:44.825Z,1007
2017-10-22T00:40:25.453Z,1007.01
2017-10-22T00:41:06.029Z,1006.99
2017-10-22T00:41:46.615Z,1007.03
2017-10-22T00:42:27.192Z,1007
2017-10-22T00:43:07.768Z,1007.01
2017-10-22T00:43:48.366Z,1007.04
2017-10-22T00:44:28.963Z,1007.02
2017-10-22T00:45:09.541Z,1007.1
2017-10-22T00:45:50.120Z,1007.12
2017-10-22T00:46:30.719Z,1007.13
2017-10-22T00:47:11.291Z,1007.12
2017-10-22T00:47:51.864Z,1007.14
2017-10-22T00:48:32.439Z,1007.19
2017-10-22T00:49:13.011Z,1007.16
2017-10-22T00:49:53.573Z,1007.14
2017-10-22T00:50:34.175Z,1007.16
2017-10-22T00:51:14.779Z,1007.16
2017-10-22T00:51:55.344Z,1007.22
2017-10-22T00:52:35.925Z,1007.23
2017-10-22T00:53:16.506Z,1007.24
2017-10-22T00:53:57.058Z,1007.23
2017-10-22T00:54:37.700Z,1007.24
2017-10-22T00:55:18.317Z,1007.19
2017-10-22T00:55:58.886Z,1007.15
2017-10-22T00:56:39.505Z,1007.19
2017-10-22T00:57:20.217Z,1007.18
2017-10-22T00:58:00.812Z,1007.19
2017-10-22T00:58:41.412Z,1007.22
2017-10-22T00:59:22.025Z,1007.18
2017-10-22T01:00:02.671Z,1007.21
2017-10-22T01:00:43.265Z,1007.26
2017-10-22T01:01:23.842Z,1007.28
2017-10-22T01:02:04.417Z,1007.32
2017-10-22T01:02:44.968Z,1007.36
2017-10-22T01:03:25.560Z,1007.36
2017-10-22T01:04:06.173Z,1007.43
2017-10-22T01:04:46.727Z,1007.38
2017-10-22T01:05:27.324Z,1007.45
2017-10-22T01:06:07.938Z,1007.46
2017-10-22T01:06:48.577Z,1007.47
2017-10-22T01:07:29.168Z,1007.4
2017-10-22T01:08:09.775Z,1007.43
2017-10-22T01:08:50.371Z,1007.41
2017-10-22T01:09:30.995Z,1007.46
2017-10-22T01:10:11.591Z,1007.45
2017-10-22T01:10:52.174Z,1007.45
2017-10-22T01:11:32.746Z,1007.47
2017-10-22T01:12:13.326Z,1007.46
2017-10-22T01:12:53.892Z,1007.47
2017-10-22T01:13:34.532Z,1007.45
2017-10-22T01:14:15.113Z,1007.45
2017-10-22T01:14:55.711Z,1007.47
2017-10-22T01:15:36.297Z,1007.47
2017-10-22T01:16:16.907Z,1007.48
2017-10-22T01:16:57.542Z,1007.45
2017-10-22T01:17:38.118Z,1007.41
2017-10-22T01:18:18.682Z,1007.38
2017-10-22T01:18:59.253Z,1007.38
2017-10-22T01:19:39.869Z,1007.37
2017-10-22T01:20:20.443Z,1007.38
2017-10-22T01:21:01.036Z,1007.35
2017-10-22T01:21:41.624Z,1007.37
2017-10-22T01:22:22.230Z,1007.35
2017-10-22T01:23:02.839Z,1007.34
2017-10-22T01:23:43.409Z,1007.31
2017-10-22T01:24:23.978Z,1007.26
2017-10-22T01:25:04.602Z,1007.22
2017-10-22T01:25:45.164Z,1007.21
2017-10-22T01:26:25.743Z,1007.16
2017-10-22T01:27:06.321Z,1007.16
2017-10-22T01:27:46.928Z,1007.13
2017-10-22T01:28:27.535Z,1007.13
2017-10-22T01:29:08.135Z,1007.07
2017-10-22T01:29:48.751Z,1007.01
2017-10-22T01:30:29.338Z,1007.07
2017-10-22T01:31:09.957Z,1007.03
2017-10-22T01:31:50.549Z,1007.09
2017-10-22T01:32:31.115Z,1007.07
2017-10-22T01:33:11.699Z,1007.08
2017-10-22T01:33:52.259Z,1007.07
2017-10-22T01:34:32.878Z,1007.06
2017-10-22T01:35:13.421Z,1007.1
2017-10-22T01:35:54.018Z,1007.13
2017-10-22T01:36:34.585Z,1007.11
2017-10-22T01:37:15.208Z,1007.1
2017-10-22T01:37:55.815Z,1007.06
2017-10-22T01:38:36.434Z,1007.06
2017-10-22T01:39:16.977Z,1007.04
2017-10-22T01:39:57.547Z,1007.03
2017-10-22T01:40:38.123Z,1007
2017-10-22T01:41:18.742Z,1006.98
2017-10-22T01:41:59.307Z,1006.96
2017-10-22T01:42:39.886Z,1006.94
2017-10-22T01:43:20.476Z,1006.88
2017-10-22T01:44:01.057Z,1006.92
2017-10-22T01:44:41.650Z,1006.9
2017-10-22T01:45:22.217Z,1006.88
2017-10-22T01:46:02.794Z,1006.94
2017-10-22T01:46:43.444Z,1006.93
2017-10-22T01:47:24.014Z,1006.97
2017-10-22T01:48:04.569Z,1006.96
2017-10-22T01:48:45.188Z,1006.99
2017-10-22T01:49:25.774Z,1006.98
2017-10-22T01:50:06.375Z,1006.93
2017-10-22T01:50:46.953Z,1006.93
2017-10-22T01:51:27.551Z,1006.9
2017-10-22T01:52:08.152Z,1006.88
2017-10-22T01:52:48.825Z,1006.86
2017-10-22T01:53:29.416Z,1006.83
2017-10-22T01:54:09.992Z,1006.78
2017-10-22T01:54:50.571Z,1006.76
2017-10-22T01:55:31.165Z,1006.75
2017-10-22T01:56:11.767Z,1006.68
2017-10-22T01:56:52.350Z,1006.7
2017-10-22T01:57:32.946Z,1006.67
2017-10-22T01:58:13.527Z,1006.66
2017-10-22T01:58:54.100Z,1006.7
2017-10-22T01:59:34.660Z,1006.66
2017-10-22T02:00:15.253Z,1006.66
2017-10-22T02:00:55.827Z,1006.68
2017-10-22T02:01:36.422Z,1006.67
2017-10-22T02:02:17.061Z,1006.65
2017-10-22T02:02:57.650Z,1006.62
2017-10-22T02:03:38.228Z,1006.63
2017-10-22T02:04:18.822Z,1006.58
2017-10-22T02:04:59.416Z,1006.58
2017-10-22T02:05:40.037Z,1006.49
2017-10-22T02:06:20.611Z,1006.49
2017-10-22T02:07:01.191Z,1006.49
2017-10-22T02:07:41.813Z,1006.43
2017-10-22T02:08:22.436Z,1006.39
2017-10-22T02:09:03.006Z,1006.4
2017-10-22T02:09:43.589Z,1006.32
2017-10-22T02:10:24.231Z,1006.31
2017-10-22T02:11:04.853Z,1006.27
2017-10-22T02:11:45.444Z,1006.25
2017-10-22T02:12:26.010Z,1006.34
2017-10-22T02:13:06.598Z,1006.38
2017-10-22T02:13:47.206Z,1006.32
2017-10-22T02:14:27.814Z,1006.33
2017-10-22T02:15:08.401Z,1006.23
2017-10-22T02:15:49.017Z,1006.25
2017-10-22T02:16:29.639Z,1006.23
2017-10-22T02:17:10.235Z,1006.25
2017-10-22T02:17:50.822Z,1006.31
2017-10-22T02:18:31.414Z,1006.33
2017-10-22T02:19:12.035Z,1006.4
2017-10-22T02:19:52.638Z,1006.42
2017-10-22T02:20:33.231Z,1006.44
2017-10-22T02:21:13.840Z,1006.46
2017-10-22T02:21:54.435Z,1006.5
2017-10-22T02:22:35.105Z,1006.48
2017-10-22T02:23:15.689Z,1006.47
2017-10-22T02:23:56.289Z,1006.5
2017-10-22T02:24:36.908Z,1006.46
2017-10-22T02:25:17.492Z,1006.43
2017-10-22T02:25:58.099Z,1006.46
2017-10-22T02:26:38.718Z,1006.46
2017-10-22T02:27:19.370Z,1006.5
2017-10-22T02:27:59.984Z,1006.55
2017-10-22T02:28:40.595Z,1006.55
2017-10-22T02:29:21.166Z,1006.6
2017-10-22T02:30:01.789Z,1006.62
2017-10-22T02:30:42.406Z,1006.6
2017-10-22T02:31:23.023Z,1006.58
2017-10-22T02:32:03.627Z,1006.61
2017-10-22T02:32:44.214Z,1006.58
2017-10-22T02:33:24.805Z,1006.6
2017-10-22T02:34:05.433Z,1006.57
2017-10-22T02:34:46.056Z,1006.62
2017-10-22T02:35:26.665Z,1006.65
2017-10-22T02:36:07.290Z,1006.67
2017-10-22T02:36:47.881Z,1006.66
2017-10-22T02:37:28.546Z,1006.7
2017-10-22T02:38:09.134Z,1006.7
2017-10-22T02:38:49.733Z,1006.72
2017-10-22T02:39:30.334Z,1006.69
2017-10-22T02:40:10.977Z,1006.7
2017-10-22T02:40:51.605Z,1006.73
2017-10-22T02:41:32.258Z,1006.79
2017-10-22T02:42:12.845Z,1006.81
2017-10-22T02:42:53.457Z,1006.73
2017-10-22T02:43:34.043Z,1006.7
2017-10-22T02:44:14.640Z,1006.72
2017-10-22T02:44:55.298Z,1006.7
2017-10-22T02:45:35.895Z,1006.7
2017-10-22T02:46:16.502Z,1006.68
2017-10-22T02:46:57.087Z,1006.73
2017-10-22T02:47:37.684Z,1006.7
2017-10-22T02:48:18.297Z,1006.73
2017-10-22T02:48:58.927Z,1006.71
2017-10-22T02:49:39.522Z,1006.7
2017-10-22T02:50:20.109Z,1006.61
2017-10-22T02:51:00.732Z,1006.64
2017-10-22T02:51:41.347Z,1006.6
2017-10-22T02:52:21.960Z,1006.57
2017-10-22T02:53:02.531Z,1006.59
2017-10-22T02:53:43.136Z,1006.54
2017-10-22T02:54:23.762Z,1006.56
2017-10-22T02:55:04.346Z,1006.53
2017-10-22T02:55:44.965Z,1006.49
2017-10-22T02:56:25.574Z,1006.47
2017-10-22T02:57:06.202Z,1006.47
2017-10-22T02:57:46.823Z,1006.43
2017-10-22T02:58:27.411Z,1006.41
2017-10-22T02:59:08.003Z,1006.45
2017-10-22T02:59:48.612Z,1006.45
2017-10-22T03:00:29.218Z,1006.42
2017-10-22T03:01:09.839Z,1006.43
2017-10-22T03:01:50.477Z,1006.46
2017-10-22T03:02:31.069Z,1006.41
2017-10-22T03:03:11.692Z,1006.48
2017-10-22T03:03:52.280Z,1006.47
2017-10-22T03:04:32.875Z,1006.49
2017-10-22T03:05:13.485Z,1006.5
2017-10-22T03:05:54.102Z,1006.5
2017-10-22T03:06:34.718Z,1006.49
2017-10-22T03:07:15.361Z,1006.57
2017-10-22T03:07:55.956Z,1006.57
2017-10-22T03:08:36.557Z,1006.64
2017-10-22T03:09:17.143Z,1006.63
2017-10-22T03:09:57.752Z,1006.64
2017-10-22T03:10:38.402Z,1006.67
2017-10-22T03:11:19.001Z,1006.66
2017-10-22T03:11:59.622Z,1006.67
2017-10-22T03:12:40.207Z,1006.71
2017-10-22T03:13:20.825Z,1006.73
2017-10-22T03:14:01.456Z,1006.76
2017-10-22T03:14:42.041Z,1006.79
2017-10-22T03:15:22.616Z,1006.8
2017-10-22T03:16:03.204Z,1006.77
2017-10-22T03:16:43.804Z,1006.78
2017-10-22T03:17:24.383Z,1006.78
2017-10-22T03:18:04.982Z,1006.76
2017-10-22T03:18:45.641Z,1006.76
2017-10-22T03:19:26.247Z,1006.74
2017-10-22T03:20:06.852Z,1006.74
2017-10-22T03:20:47.450Z,1006.72
2017-10-22T03:21:28.060Z,1006.77
2017-10-22T03:22:08.683Z,1006.74
2017-10-22T03:22:49.323Z,1006.77
2017-10-22T03:23:29.899Z,1006.75
2017-10-22T03:24:10.556Z,1006.79
2017-10-22T03:24:51.139Z,1006.8
2017-10-22T03:25:31.730Z,1006.81
2017-10-22T03:26:12.309Z,1006.8
2017-10-22T03:26:52.876Z,1006.81
2017-10-22T03:27:33.444Z,1006.8
2017-10-22T03:28:14.038Z,1006.82
2017-10-22T03:28:54.635Z,1006.81
2017-10-22T03:29:35.208Z,1006.8
2017-10-22T03:30:15.784Z,1006.76
2017-10-22T03:30:56.349Z,1006.79
2017-10-22T03:31:37.001Z,1006.75
2017-10-22T03:32:17.578Z,1006.77
2017-10-22T03:32:58.179Z,1006.75
2017-10-22T03:33:38.771Z,1006.77
2017-10-22T03:34:19.350Z,1006.76
2017-10-22T03:34:59.921Z,1006.83
2017-10-22T03:35:40.566Z,1006.76
2017-10-22T03:36:21.120Z,1006.76
2017-10-22T03:37:01.696Z,1006.79
2017-10-22T03:37:42.275Z,1006.75
2017-10-22T03:38:22.868Z,1006.72
2017-10-22T03:39:03.456Z,1006.73
2017-10-22T03:39:44.045Z,1006.7
2017-10-22T03:40:24.692Z,1006.66
2017-10-22T03:41:05.278Z,1006.67
2017-10-22T03:41:45.863Z,1006.64
2017-10-22T03:42:26.450Z,1006.6
2017-10-22T03:43:07.038Z,1006.58
2017-10-22T03:43:47.631Z,1006.6
2017-10-22T03:44:28.212Z,1006.59
2017-10-22T03:45:08.794Z,1006.6
2017-10-22T03:45:49.378Z,1006.59
2017-10-22T03:46:29.962Z,1006.58
2017-10-22T03:47:10.553Z,1006.55
2017-10-22T03:47:51.128Z,1006.54
2017-10-22T03:48:31.729Z,1006.54
2017-10-22T03:49:12.360Z,1006.48
2017-10-22T03:49:52.933Z,1006.51
2017-10-22T03:50:33.585Z,1006.52
2017-10-22T03:51:14.221Z,1006.53
2017-10-22T03:51:54.792Z,1006.52
2017-10-22T03:52:35.397Z,1006.54
2017-10-22T03:53:15.982Z,1006.52
2017-10-22T03:53:56.549Z,1006.58
2017-10-22T03:54:37.143Z,1006.57
2017-10-22T03:55:17.742Z,1006.57
2017-10-22T03:55:58.339Z,1006.6
2017-10-22T03:56:38.986Z,1006.57
2017-10-22T03:57:19.628Z,1006.59
2017-10-22T03:58:00.209Z,1006.57
2017-10-22T03:58:40.811Z,1006.54
2017-10-22T03:59:21.389Z,1006.51
2017-10-22T04:00:01.974Z,1006.57
2017-10-22T04:00:42.560Z,1006.58
2017-10-22T04:01:23.174Z,1006.61
2017-10-22T04:02:03.765Z,1006.6
2017-10-22T04:02:44.355Z,1006.63
2017-10-22T04:03:24.942Z,1006.62
2017-10-22T04:04:05.550Z,1006.59
2017-10-22T04:04:46.135Z,1006.6
2017-10-22T04:05:26.854Z,1006.65
2017-10-22T04:06:07.484Z,1006.59
2017-10-22T04:06:48.099Z,1006.64
2017-10-22T04:07:28.726Z,1006.63
2017-10-22T04:08:09.302Z,1006.68
2017-10-22T04:08:49.917Z,1006.69
2017-10-22T04:09:30.500Z,1006.71
2017-10-22T04:10:11.106Z,1006.69
2017-10-22T04:10:51.702Z,1006.69
2017-10-22T04:11:32.305Z,1006.71
2017-10-22T04:12:12.909Z,1006.7
2017-10-22T04:12:53.548Z,1006.73
2017-10-22T04:13:34.143Z,1006.69
2017-10-22T04:14:14.758Z,1006.66
2017-10-22T04:14:55.322Z,1006.59
2017-10-22T04:15:35.910Z,1006.65
2017-10-22T04:16:16.569Z,1006.64
2017-10-22T04:16:57.151Z,1006.56
2017-10-22T04:17:37.734Z,1006.61
2017-10-22T04:18:18.341Z,1006.62
2017-10-22T04:18:58.951Z,1006.6
2017-10-22T04:19:39.573Z,1006.58
2017-10-22T04:20:20.201Z,1006.6
2017-10-22T04:21:00.787Z,1006.58
2017-10-22T04:21:41.380Z,1006.55
2017-10-22T04:22:21.980Z,1006.58
2017-10-22T04:23:02.571Z,1006.6
2017-10-22T04:23:43.139Z,1006.6
2017-10-22T04:24:23.738Z,1006.63
2017-10-22T04:25:04.323Z,1006.63
2017-10-22T04:25:44.969Z,1006.62
2017-10-22T04:26:25.575Z,1006.61
2017-10-22T04:27:06.190Z,1006.64
2017-10-22T04:27:46.805Z,1006.63
2017-10-22T04:28:27.383Z,1006.58
2017-10-22T04:29:07.964Z,1006.61
2017-10-22T04:29:48.569Z,1006.57
2017-10-22T04:30:29.176Z,1006.57
2017-10-22T04:31:09.769Z,1006.58
2017-10-22T04:31:50.380Z,1006.55
2017-10-22T04:32:30.971Z,1006.59
2017-10-22T04:33:11.556Z,1006.55
2017-10-22T04:33:52.137Z,1006.54
2017-10-22T04:34:32.827Z,1006.52
2017-10-22T04:35:13.414Z,1006.5
2017-10-22T04:35:54.249Z,1006.5
2017-10-22T04:36:34.895Z,1006.51
2017-10-22T04:37:15.487Z,1006.55
2017-10-22T04:37:56.084Z,1006.53
2017-10-22T04:38:36.684Z,1006.51
2017-10-22T04:39:17.275Z,1006.54
2017-10-22T04:39:57.875Z,1006.55
2017-10-22T04:40:38.508Z,1006.56
2017-10-22T04:41:19.118Z,1006.58
2017-10-22T04:41:59.705Z,1006.63
2017-10-22T04:42:40.310Z,1006.64
2017-10-22T04:43:20.915Z,1006.65
2017-10-22T04:44:01.511Z,1006.67
2017-10-22T04:44:42.145Z,1006.69
2017-10-22T04:45:22.782Z,1006.72
2017-10-22T04:46:03.428Z,1006.73
2017-10-22T04:46:44.025Z,1006.72
2017-10-22T04:47:24.623Z,1006.72
2017-10-22T04:48:05.294Z,1006.7
2017-10-22T04:48:45.873Z,1006.71
2017-10-22T04:49:26.484Z,1006.71
2017-10-22T04:50:07.131Z,1006.72
2017-10-22T04:50:47.687Z,1006.69
2017-10-22T04:51:28.265Z,1006.67
2017-10-22T04:52:08.897Z,1006.67
2017-10-22T04:52:49.497Z,1006.65
2017-10-22T04:53:30.104Z,1006.68
2017-10-22T04:54:10.701Z,1006.68
2017-10-22T04:54:51.321Z,1006.67
2017-10-22T04:55:31.943Z,1006.71
2017-10-22T04:56:12.559Z,1006.67
2017-10-22T04:56:53.163Z,1006.64
2017-10-22T04:57:33.756Z,1006.64
2017-10-22T04:58:14.367Z,1006.69
2017-10-22T04:58:54.957Z,1006.66
2017-10-22T04:59:35.553Z,1006.68
2017-10-22T05:00:16.170Z,1006.69
2017-10-22T05:00:56.778Z,1006.64
2017-10-22T05:01:37.430Z,1006.67
2017-10-22T05:02:18.083Z,1006.72
2017-10-22T05:02:58.682Z,1006.7
2017-10-22T05:03:39.300Z,1006.72
2017-10-22T05:04:19.891Z,1006.75
2017-10-22T05:05:00.489Z,1006.74
2017-10-22T05:05:41.062Z,1006.76
2017-10-22T05:06:21.686Z,1006.79
2017-10-22T05:07:02.279Z,1006.77
2017-10-22T05:07:42.882Z,1006.77
2017-10-22T05:08:23.479Z,1006.75
2017-10-22T05:09:04.064Z,1006.73
2017-10-22T05:09:44.676Z,1006.73
2017-10-22T05:10:25.261Z,1006.71
2017-10-22T05:11:05.853Z,1006.68
2017-10-22T05:11:46.452Z,1006.69
2017-10-22T05:12:27.046Z,1006.69
2017-10-22T05:13:07.622Z,1006.72
2017-10-22T05:13:48.192Z,1006.74
2017-10-22T05:14:28.758Z,1006.74
2017-10-22T05:15:09.538Z,1006.74
2017-10-22T05:15:50.576Z,1006.75
2017-10-22T05:16:31.414Z,1006.76
2017-10-22T05:17:12.020Z,1006.75
2017-10-22T05:17:52.683Z,1006.79
2017-10-22T05:18:33.656Z,1006.76
2017-10-22T05:19:14.233Z,1006.76
2017-10-22T05:19:54.944Z,1006.75
2017-10-22T05:20:35.562Z,1006.72
2017-10-22T05:21:16.150Z,1006.69
2017-10-22T05:21:56.750Z,1006.66
2017-10-22T05:22:37.327Z,1006.66
2017-10-22T05:23:17.951Z,1006.66
2017-10-22T05:23:58.562Z,1006.59
2017-10-22T05:24:39.268Z,1006.58
2017-10-22T05:25:19.869Z,1006.5
2017-10-22T05:26:00.467Z,1006.48
2017-10-22T05:26:41.074Z,1006.48
2017-10-22T05:27:21.690Z,1006.43
2017-10-22T05:28:02.305Z,1006.42
2017-10-22T05:28:42.869Z,1006.45
2017-10-22T05:29:23.445Z,1006.47
2017-10-22T05:30:04.021Z,1006.46
2017-10-22T05:30:44.619Z,1006.45
2017-10-22T05:31:25.202Z,1006.45
2017-10-22T05:32:05.773Z,1006.46
2017-10-22T05:32:46.357Z,1006.53
2017-10-22T05:33:26.943Z,1006.53
2017-10-22T05:34:07.569Z,1006.53
2017-10-22T05:34:48.168Z,1006.57
2017-10-22T05:35:28.747Z,1006.59
2017-10-22T05:36:09.353Z,1006.65
2017-10-22T05:36:49.933Z,1006.63
2017-10-22T05:37:30.543Z,1006.67
2017-10-22T05:38:11.114Z,1006.67
2017-10-22T05:38:51.734Z,1006.7
2017-10-22T05:39:32.310Z,1006.66
2017-10-22T05:40:12.925Z,1006.66
2017-10-22T05:40:53.521Z,1006.65
2017-10-22T05:41:34.142Z,1006.67
2017-10-22T05:42:14.700Z,1006.71
2017-10-22T05:42:55.350Z,1006.71
2017-10-22T05:43:35.980Z,1006.75
2017-10-22T05:44:16.550Z,1006.72
2017-10-22T05:44:57.127Z,1006.77
2017-10-22T05:45:37.703Z,1006.79
2017-10-22T05:46:18.327Z,1006.85
2017-10-22T05:46:58.910Z,1006.77
2017-10-22T05:47:39.500Z,1006.8
2017-10-22T05:48:20.067Z,1006.76
2017-10-22T05:49:00.644Z,1006.7
2017-10-22T05:49:41.215Z,1006.71
2017-10-22T05:50:21.806Z,1006.71
2017-10-22T05:51:02.387Z,1006.67
2017-10-22T05:51:42.992Z,1006.62
2017-10-22T05:52:23.798Z,1006.66
2017-10-22T05:53:04.567Z,1006.64
2017-10-22T05:53:45.296Z,1006.64
2017-10-22T05:54:25.989Z,1006.58
2017-10-22T05:55:06.785Z,1006.61
2017-10-22T05:55:47.562Z,1006.61
2017-10-22T05:56:28.468Z,1006.68
2017-10-22T05:57:09.054Z,1006.69
2017-10-22T05:57:49.672Z,1006.77
2017-10-22T05:58:30.295Z,1006.79
2017-10-22T05:59:10.889Z,1006.78
2017-10-22T05:59:51.601Z,1006.82
2017-10-22T06:00:32.200Z,1006.86
2017-10-22T06:01:12.785Z,1006.84
2017-10-22T06:01:53.386Z,1006.8
2017-10-22T06:02:34.046Z,1006.83
2017-10-22T06:03:14.656Z,1006.81
2017-10-22T06:03:55.304Z,1006.79
2017-10-22T06:04:35.942Z,1006.84
2017-10-22T06:05:16.610Z,1006.82
2017-10-22T06:05:57.200Z,1006.82
2017-10-22T06:06:37.844Z,1006.8
2017-10-22T06:07:18.479Z,1006.78
2017-10-22T06:07:59.117Z,1006.72
2017-10-22T06:08:39.736Z,1006.74
2017-10-22T06:09:20.335Z,1006.72
2017-10-22T06:10:00.941Z,1006.71
2017-10-22T06:10:41.532Z,1006.7
2017-10-22T06:11:22.134Z,1006.71
2017-10-22T06:12:02.751Z,1006.68
2017-10-22T06:12:43.358Z,1006.74
2017-10-22T06:13:23.942Z,1006.71
2017-10-22T06:14:04.523Z,1006.74
2017-10-22T06:14:45.118Z,1006.76
2017-10-22T06:15:25.697Z,1006.76
2017-10-22T06:16:06.292Z,1006.74
2017-10-22T06:16:46.873Z,1006.79
2017-10-22T06:17:27.448Z,1006.77
2017-10-22T06:18:08.011Z,1006.77
2017-10-22T06:18:48.630Z,1006.76
2017-10-22T06:19:29.227Z,1006.75
2017-10-22T06:20:09.798Z,1006.78
2017-10-22T06:20:50.497Z,1006.76
2017-10-22T06:21:31.103Z,1006.72
2017-10-22T06:22:11.748Z,1006.67
2017-10-22T06:22:52.382Z,1006.72
2017-10-22T06:23:32.985Z,1006.71
2017-10-22T06:24:13.605Z,1006.75
2017-10-22T06:24:54.223Z,1006.73
2017-10-22T06:25:34.871Z,1006.73
2017-10-22T06:26:15.499Z,1006.72
2017-10-22T06:26:56.363Z,1006.7
2017-10-22T06:27:36.866Z,1006.73
2017-10-22T06:28:17.491Z,1006.71
2017-10-22T06:28:58.122Z,1006.72
2017-10-22T06:29:38.766Z,1006.78
2017-10-22T06:30:19.378Z,1006.76
2017-10-22T06:31:00.055Z,1006.77
2017-10-22T06:31:40.698Z,1006.8
2017-10-22T06:32:21.299Z,1006.82
2017-10-22T06:33:01.883Z,1006.76
2017-10-22T06:33:42.495Z,1006.76
2017-10-22T06:34:23.135Z,1006.77
2017-10-22T06:35:03.749Z,1006.81
2017-10-22T06:35:44.358Z,1006.79
2017-10-22T06:36:24.969Z,1006.77
2017-10-22T06:37:05.592Z,1006.74
2017-10-22T06:37:46.177Z,1006.76
2017-10-22T06:38:26.825Z,1006.8
2017-10-22T06:39:07.438Z,1006.81
2017-10-22T06:39:48.061Z,1006.82
2017-10-22T06:40:28.669Z,1006.87
2017-10-22T06:41:09.308Z,1006.86
2017-10-22T06:41:49.917Z,1006.86
2017-10-22T06:42:30.567Z,1006.9
2017-10-22T06:43:11.195Z,1006.92
2017-10-22T06:43:51.798Z,1006.9
2017-10-22T06:44:32.390Z,1006.91
2017-10-22T06:45:12.993Z,1006.91
2017-10-22T06:45:53.633Z,1006.91
2017-10-22T06:46:34.198Z,1006.91
2017-10-22T06:47:14.804Z,1006.93
2017-10-22T06:47:55.409Z,1006.89
2017-10-22T06:48:36.033Z,1006.94
2017-10-22T06:49:16.693Z,1006.87
2017-10-22T06:49:57.280Z,1006.9
2017-10-22T06:50:37.999Z,1006.87
2017-10-22T06:51:18.652Z,1006.87
2017-10-22T06:51:59.298Z,1006.82
2017-10-22T06:52:39.950Z,1006.89
2017-10-22T06:53:20.753Z,1006.89
2017-10-22T06:54:01.329Z,1006.86
2017-10-22T06:54:41.994Z,1006.88
2017-10-22T06:55:22.628Z,1006.76
2017-10-22T06:56:03.336Z,1006.82
2017-10-22T06:56:43.949Z,1006.8
2017-10-22T06:57:24.538Z,1006.8
2017-10-22T06:58:05.155Z,1006.82
2017-10-22T06:58:45.814Z,1006.84
2017-10-22T06:59:26.388Z,1006.84
2017-10-22T07:00:06.989Z,1006.88
2017-10-22T07:00:47.760Z,1006.85
2017-10-22T07:01:28.236Z,1006.83
2017-10-22T07:02:08.851Z,1006.82
2017-10-22T07:02:49.418Z,1006.87
2017-10-22T07:03:30.045Z,1006.88
2017-10-22T07:04:10.661Z,1006.87
2017-10-22T07:04:51.295Z,1006.9
2017-10-22T07:05:31.937Z,1006.86
2017-10-22T07:06:12.593Z,1006.88
2017-10-22T07:06:53.228Z,1006.93
2017-10-22T07:07:33.852Z,1006.88
2017-10-22T07:08:14.514Z,1006.87
2017-10-22T07:08:55.094Z,1006.89
2017-10-22T07:09:35.679Z,1006.86
2017-10-22T07:10:16.287Z,1006.84
2017-10-22T07:10:56.882Z,1006.85
2017-10-22T07:11:37.510Z,1006.85
2017-10-22T07:12:18.141Z,1006.85
2017-10-22T07:12:58.816Z,1006.84
2017-10-22T07:13:39.673Z,1006.84
2017-10-22T07:14:20.669Z,1006.82
2017-10-22T07:15:01.293Z,1006.79
2017-10-22T07:15:41.998Z,1006.83
2017-10-22T07:16:22.805Z,1006.81
2017-10-22T07:17:03.398Z,1006.83
2017-10-22T07:17:44.024Z,1006.84
2017-10-22T07:18:24.637Z,1006.81
2017-10-22T07:19:05.241Z,1006.82
2017-10-22T07:19:45.866Z,1006.8
2017-10-22T07:20:26.557Z,1006.86
2017-10-22T07:21:07.201Z,1006.81
2017-10-22T07:21:47.880Z,1006.81
2017-10-22T07:22:28.472Z,1006.81
2017-10-22T07:23:09.053Z,1006.86
2017-10-22T07:23:49.654Z,1006.83
2017-10-22T07:24:30.243Z,1006.83
2017-10-22T07:25:10.845Z,1006.8
2017-10-22T07:25:51.480Z,1006.8
2017-10-22T07:26:32.075Z,1006.78
2017-10-22T07:27:12.686Z,1006.81
2017-10-22T07:27:53.300Z,1006.77
2017-10-22T07:28:33.908Z,1006.68
2017-10-22T07:29:14.829Z,1006.74
2017-10-22T07:29:55.472Z,1006.7
2017-10-22T07:30:36.100Z,1006.72
2017-10-22T07:31:16.701Z,1006.75
2017-10-22T07:31:57.299Z,1006.73
2017-10-22T07:32:37.918Z,1006.81
2017-10-22T07:33:18.521Z,1006.8
2017-10-22T07:33:59.168Z,1006.79
2017-10-22T07:34:39.777Z,1006.81
2017-10-22T07:35:20.404Z,1006.79
2017-10-22T07:36:01.029Z,1006.84
2017-10-22T07:36:41.623Z,1006.81
2017-10-22T07:37:22.257Z,1006.79
2017-10-22T07:38:02.836Z,1006.78
2017-10-22T07:38:43.468Z,1006.77
2017-10-22T07:39:24.083Z,1006.8
2017-10-22T07:40:04.698Z,1006.77
2017-10-22T07:40:45.374Z,1006.84
2017-10-22T07:41:26.043Z,1006.85
2017-10-22T07:42:06.668Z,1006.84
2017-10-22T07:42:47.297Z,1006.85
2017-10-22T07:43:27.938Z,1006.87
2017-10-22T07:44:08.562Z,1006.86
2017-10-22T07:44:49.202Z,1006.88
2017-10-22T07:45:29.850Z,1006.89
2017-10-22T07:46:10.454Z,1006.92
2017-10-22T07:46:51.080Z,1006.99
2017-10-22T07:47:31.694Z,1006.92
2017-10-22T07:48:12.336Z,1006.94
2017-10-22T07:48:52.918Z,1006.99
2017-10-22T07:49:33.528Z,1007.02
2017-10-22T07:50:14.149Z,1007.1
2017-10-22T07:50:54.762Z,1007.08
2017-10-22T07:51:35.462Z,1007.18
2017-10-22T07:52:16.117Z,1007.21
2017-10-22T07:52:56.686Z,1007.12
2017-10-22T07:53:37.294Z,1007.07
2017-10-22T07:54:17.899Z,1007.13
2017-10-22T07:54:58.572Z,1007.13
2017-10-22T07:55:39.195Z,1007.14
2017-10-22T07:56:19.843Z,1007.09
2017-10-22T07:57:00.453Z,1007.08
2017-10-22T07:57:41.040Z,1007
2017-10-22T07:58:21.655Z,1006.98
2017-10-22T07:59:02.258Z,1006.95
2017-10-22T07:59:42.894Z,1006.95
2017-10-22T08:00:23.512Z,1006.99
2017-10-22T08:01:04.137Z,1006.99
2017-10-22T08:01:44.778Z,1006.99
2017-10-22T08:02:25.390Z,1006.97
2017-10-22T08:03:06.026Z,1006.95
2017-10-22T08:03:46.661Z,1006.98
2017-10-22T08:04:27.288Z,1006.96
2017-10-22T08:05:07.944Z,1006.97
2017-10-22T08:05:48.627Z,1006.92
2017-10-22T08:06:29.302Z,1006.92
2017-10-22T08:07:09.998Z,1006.98
2017-10-22T08:07:50.675Z,1006.94
2017-10-22T08:08:31.365Z,1006.96
2017-10-22T08:09:12.009Z,1006.99
2017-10-22T08:09:52.615Z,1006.96
2017-10-22T08:10:33.228Z,1007.01
2017-10-22T08:11:13.951Z,1007.06
2017-10-22T08:11:54.627Z,1007.01
2017-10-22T08:12:35.245Z,1007.01
2017-10-22T08:13:15.972Z,1007.02